Startpagina
METAR-TAF:

METAR-TAF

Vliegvelden :

Productieplatform

K13-a, Nederland

breedte: 53-13-04N, lengte: 3-13-13E, hoogte: 31 m

Actueel weer

Dit bericht is 26 minuten geleden gemaakt, om 03:25 UTC
Wind 15 kt uit het zuiden
Temperatuur 18°C
Vochtigheid 94%
Druk 1019 hPa

METAR: EHJR 210325Z AUTO 17015KT //// // ///////// 18/17 Q1019 RE// W18/H8

Tijdstip: 05:51 (03:51 UTC)


TAF: ontbreekt

Waarnemingen en weersverwachtingen van meer dan 4000 vliegvelden (METAR en TAF).

De beschikbare stations zijn de gele en rode punten op de kaart.

Ga met uw muis naar het station om de naam te zien.

Klik dan om waarnemingen en weersverwachtingen te zien.

kaart wijzigen: klik op de groene knoppen met een zwart kruis om in te zoomen, op de groene knop met een streepje om uit te zoomen of op de groene pijlen voor aangrenzende kaarten.


METAR-TAF: